sensor_id;sensor_type;location;lat;lon;timestamp;temperature;humidity
22008;DHT22;11168;56.976;24.168;2023-01-04T00:01:14;1.90;99.90
22008;DHT22;11168;56.976;24.168;2023-01-04T00:03:42;1.90;99.90
22008;DHT22;11168;56.976;24.168;2023-01-04T00:06:12;1.90;99.90
22008;DHT22;11168;56.976;24.168;2023-01-04T00:08:39;1.80;99.90
22008;DHT22;11168;56.976;24.168;2023-01-04T00:11:10;1.90;99.90
22008;DHT22;11168;56.976;24.168;2023-01-04T00:13:37;1.90;99.90
22008;DHT22;11168;56.976;24.168;2023-01-04T00:16:12;1.90;99.90
22008;DHT22;11168;56.976;24.168;2023-01-04T00:18:40;1.90;99.90
22008;DHT22;11168;56.976;24.168;2023-01-04T00:21:14;1.90;99.90
22008;DHT22;11168;56.976;24.168;2023-01-04T00:23:43;1.90;99.90
22008;DHT22;11168;56.976;24.168;2023-01-04T00:26:13;2.70;99.90
22008;DHT22;11168;56.976;24.168;2023-01-04T00:28:41;1.90;99.90
22008;DHT22;11168;56.976;24.168;2023-01-04T00:31:15;1.90;99.90
22008;DHT22;11168;56.976;24.168;2023-01-04T00:33:42;1.90;99.90
22008;DHT22;11168;56.976;24.168;2023-01-04T00:36:12;1.90;99.90
22008;DHT22;11168;56.976;24.168;2023-01-04T00:38:40;1.90;99.90
22008;DHT22;11168;56.976;24.168;2023-01-04T00:41:08;1.90;99.90
22008;DHT22;11168;56.976;24.168;2023-01-04T00:43:59;1.90;99.90
22008;DHT22;11168;56.976;24.168;2023-01-04T00:46:30;1.90;99.90
22008;DHT22;11168;56.976;24.168;2023-01-04T00:48:57;1.90;99.90
22008;DHT22;11168;56.976;24.168;2023-01-04T00:51:27;1.90;99.90
22008;DHT22;11168;56.976;24.168;2023-01-04T00:53:55;1.90;99.90
22008;DHT22;11168;56.976;24.168;2023-01-04T00:56:22;1.90;99.90
22008;DHT22;11168;56.976;24.168;2023-01-04T00:58:53;1.80;99.90
22008;DHT22;11168;56.976;24.168;2023-01-04T01:01:20;1.80;99.90
22008;DHT22;11168;56.976;24.168;2023-01-04T01:03:47;1.90;99.90
22008;DHT22;11168;56.976;24.168;2023-01-04T01:06:17;1.80;99.90
22008;DHT22;11168;56.976;24.168;2023-01-04T01:08:44;1.90;99.90
22008;DHT22;11168;56.976;24.168;2023-01-04T01:11:12;1.80;99.90
22008;DHT22;11168;56.976;24.168;2023-01-04T01:13:39;1.90;99.90
22008;DHT22;11168;56.976;24.168;2023-01-04T01:16:15;1.80;99.90
22008;DHT22;11168;56.976;24.168;2023-01-04T01:18:43;1.90;99.90
22008;DHT22;11168;56.976;24.168;2023-01-04T01:21:16;1.90;99.90
22008;DHT22;11168;56.976;24.168;2023-01-04T01:23:44;1.90;99.90
22008;DHT22;11168;56.976;24.168;2023-01-04T01:26:13;1.90;99.90
22008;DHT22;11168;56.976;24.168;2023-01-04T01:28:41;1.90;99.90
22008;DHT22;11168;56.976;24.168;2023-01-04T01:31:19;1.90;99.90
22008;DHT22;11168;56.976;24.168;2023-01-04T01:33:48;1.90;99.90
22008;DHT22;11168;56.976;24.168;2023-01-04T01:36:17;1.90;99.90
22008;DHT22;11168;56.976;24.168;2023-01-04T01:38:44;1.90;99.90
22008;DHT22;11168;56.976;24.168;2023-01-04T01:41:23;1.80;99.90
22008;DHT22;11168;56.976;24.168;2023-01-04T01:43:59;1.90;99.90
22008;DHT22;11168;56.976;24.168;2023-01-04T01:51:54;1.80;99.90
22008;DHT22;11168;56.976;24.168;2023-01-04T01:54:25;1.70;99.90
22008;DHT22;11168;56.976;24.168;2023-01-04T01:56:57;1.70;99.90
22008;DHT22;11168;56.976;24.168;2023-01-04T01:59:25;1.70;99.90
22008;DHT22;11168;56.976;24.168;2023-01-04T02:01:53;1.60;99.90
22008;DHT22;11168;56.976;24.168;2023-01-04T02:04:20;1.60;99.90
22008;DHT22;11168;56.976;24.168;2023-01-04T02:06:50;1.60;99.90
22008;DHT22;11168;56.976;24.168;2023-01-04T02:09:18;1.50;99.90
22008;DHT22;11168;56.976;24.168;2023-01-04T02:11:46;1.40;99.90
22008;DHT22;11168;56.976;24.168;2023-01-04T02:14:14;1.40;99.90
22008;DHT22;11168;56.976;24.168;2023-01-04T02:28:59;1.20;99.90
22008;DHT22;11168;56.976;24.168;2023-01-04T02:31:10;1.10;99.90
22008;DHT22;11168;56.976;24.168;2023-01-04T02:34:02;1.10;99.90
22008;DHT22;11168;56.976;24.168;2023-01-04T02:44:23;1.30;99.90
22008;DHT22;11168;56.976;24.168;2023-01-04T02:47:13;1.40;99.90
22008;DHT22;11168;56.976;24.168;2023-01-04T02:49:41;1.40;99.90
22008;DHT22;11168;56.976;24.168;2023-01-04T02:52:31;1.40;99.90
22008;DHT22;11168;56.976;24.168;2023-01-04T02:54:59;1.50;99.90
22008;DHT22;11168;56.976;24.168;2023-01-04T02:57:42;1.40;99.90
22008;DHT22;11168;56.976;24.168;2023-01-04T03:03:17;1.50;99.90
22008;DHT22;11168;56.976;24.168;2023-01-04T03:06:14;1.50;99.90
22008;DHT22;11168;56.976;24.168;2023-01-04T03:08:56;1.50;99.90
22008;DHT22;11168;56.976;24.168;2023-01-04T03:11:42;1.50;99.90
22008;DHT22;11168;56.976;24.168;2023-01-04T03:14:46;1.50;99.90
22008;DHT22;11168;56.976;24.168;2023-01-04T03:17:17;1.50;99.90
22008;DHT22;11168;56.976;24.168;2023-01-04T03:19:46;1.50;99.90
22008;DHT22;11168;56.976;24.168;2023-01-04T03:22:52;1.40;99.90
22008;DHT22;11168;56.976;24.168;2023-01-04T03:25:39;1.40;99.90
22008;DHT22;11168;56.976;24.168;2023-01-04T03:28:31;1.30;99.90
22008;DHT22;11168;56.976;24.168;2023-01-04T03:34:04;1.30;99.90
22008;DHT22;11168;56.976;24.168;2023-01-04T03:39:57;1.40;99.90
22008;DHT22;11168;56.976;24.168;2023-01-04T03:45:50;1.40;99.90
22008;DHT22;11168;56.976;24.168;2023-01-04T03:48:45;1.50;99.90
22008;DHT22;11168;56.976;24.168;2023-01-04T03:51:35;1.50;99.90
22008;DHT22;11168;56.976;24.168;2023-01-04T03:54:11;1.60;99.90
22008;DHT22;11168;56.976;24.168;2023-01-04T03:56:41;1.50;99.90
22008;DHT22;11168;56.976;24.168;2023-01-04T03:59:11;1.50;99.90
22008;DHT22;11168;56.976;24.168;2023-01-04T04:01:41;1.60;99.90
22008;DHT22;11168;56.976;24.168;2023-01-04T04:04:09;1.60;99.90
22008;DHT22;11168;56.976;24.168;2023-01-04T04:06:55;1.60;99.90
22008;DHT22;11168;56.976;24.168;2023-01-04T04:09:41;1.60;99.90
22008;DHT22;11168;56.976;24.168;2023-01-04T04:12:08;1.60;99.90
22008;DHT22;11168;56.976;24.168;2023-01-04T04:14:35;1.60;99.90
22008;DHT22;11168;56.976;24.168;2023-01-04T04:17:02;1.60;99.90
22008;DHT22;11168;56.976;24.168;2023-01-04T04:19:29;1.60;99.90
22008;DHT22;11168;56.976;24.168;2023-01-04T04:21:56;1.70;99.90
22008;DHT22;11168;56.976;24.168;2023-01-04T04:24:26;1.60;99.90
22008;DHT22;11168;56.976;24.168;2023-01-04T04:26:54;1.70;99.90
22008;DHT22;11168;56.976;24.168;2023-01-04T04:29:22;1.70;99.90
22008;DHT22;11168;56.976;24.168;2023-01-04T04:31:49;1.70;99.90
22008;DHT22;11168;56.976;24.168;2023-01-04T04:34:16;1.70;99.90
22008;DHT22;11168;56.976;24.168;2023-01-04T04:36:43;1.70;99.90
22008;DHT22;11168;56.976;24.168;2023-01-04T04:39:11;1.70;99.90
22008;DHT22;11168;56.976;24.168;2023-01-04T04:41:38;1.70;99.90
22008;DHT22;11168;56.976;24.168;2023-01-04T04:44:15;1.70;99.90
22008;DHT22;11168;56.976;24.168;2023-01-04T04:46:43;1.70;99.90
22008;DHT22;11168;56.976;24.168;2023-01-04T04:49:10;1.70;99.90
22008;DHT22;11168;56.976;24.168;2023-01-04T04:51:40;1.70;99.90
22008;DHT22;11168;56.976;24.168;2023-01-04T04:54:09;1.70;99.90
22008;DHT22;11168;56.976;24.168;2023-01-04T04:56:37;1.60;99.90
22008;DHT22;11168;56.976;24.168;2023-01-04T04:59:04;1.70;99.90
22008;DHT22;11168;56.976;24.168;2023-01-04T05:01:32;1.60;99.90
22008;DHT22;11168;56.976;24.168;2023-01-04T05:03:59;1.60;99.90
22008;DHT22;11168;56.976;24.168;2023-01-04T05:06:27;1.60;99.90
22008;DHT22;11168;56.976;24.168;2023-01-04T05:08:54;1.60;99.90
22008;DHT22;11168;56.976;24.168;2023-01-04T05:11:21;1.60;99.90
22008;DHT22;11168;56.976;24.168;2023-01-04T05:14:08;1.60;99.90
22008;DHT22;11168;56.976;24.168;2023-01-04T05:16:38;1.60;99.90
22008;DHT22;11168;56.976;24.168;2023-01-04T05:19:05;1.60;99.90
22008;DHT22;11168;56.976;24.168;2023-01-04T05:21:32;1.60;99.90
22008;DHT22;11168;56.976;24.168;2023-01-04T05:23:59;1.70;99.90
22008;DHT22;11168;56.976;24.168;2023-01-04T05:26:26;1.70;99.90
22008;DHT22;11168;56.976;24.168;2023-01-04T05:28:53;1.70;99.90
22008;DHT22;11168;56.976;24.168;2023-01-04T05:31:20;1.70;99.90
22008;DHT22;11168;56.976;24.168;2023-01-04T05:33:47;1.70;99.90
22008;DHT22;11168;56.976;24.168;2023-01-04T05:36:14;1.70;99.90
22008;DHT22;11168;56.976;24.168;2023-01-04T05:38:42;1.70;99.90
22008;DHT22;11168;56.976;24.168;2023-01-04T05:41:09;1.70;99.90
22008;DHT22;11168;56.976;24.168;2023-01-04T05:43:57;-0.50;99.90
22008;DHT22;11168;56.976;24.168;2023-01-04T05:46:24;1.70;99.90
22008;DHT22;11168;56.976;24.168;2023-01-04T05:48:51;1.60;99.90
22008;DHT22;11168;56.976;24.168;2023-01-04T05:51:17;1.70;99.90
22008;DHT22;11168;56.976;24.168;2023-01-04T05:53:44;1.60;99.90
22008;DHT22;11168;56.976;24.168;2023-01-04T05:56:11;1.60;99.90
22008;DHT22;11168;56.976;24.168;2023-01-04T05:58:38;1.60;99.90
22008;DHT22;11168;56.976;24.168;2023-01-04T06:01:05;1.60;99.90
22008;DHT22;11168;56.976;24.168;2023-01-04T06:03:33;1.60;99.90
22008;DHT22;11168;56.976;24.168;2023-01-04T06:06:00;1.70;99.90
22008;DHT22;11168;56.976;24.168;2023-01-04T06:08:27;1.70;99.90
22008;DHT22;11168;56.976;24.168;2023-01-04T06:10:54;1.70;99.90
22008;DHT22;11168;56.976;24.168;2023-01-04T06:13:21;1.70;99.90
22008;DHT22;11168;56.976;24.168;2023-01-04T06:15:48;1.70;99.90
22008;DHT22;11168;56.976;24.168;2023-01-04T06:18:15;1.70;99.90
22008;DHT22;11168;56.976;24.168;2023-01-04T06:20:42;1.70;99.90
22008;DHT22;11168;56.976;24.168;2023-01-04T06:23:09;1.80;99.90
22008;DHT22;11168;56.976;24.168;2023-01-04T06:25:36;1.80;99.90
22008;DHT22;11168;56.976;24.168;2023-01-04T06:28:03;1.70;99.90
22008;DHT22;11168;56.976;24.168;2023-01-04T06:30:30;1.80;99.90
22008;DHT22;11168;56.976;24.168;2023-01-04T06:32:58;1.80;99.90
22008;DHT22;11168;56.976;24.168;2023-01-04T06:35:25;1.80;99.90
22008;DHT22;11168;56.976;24.168;2023-01-04T06:37:52;1.80;99.90
22008;DHT22;11168;56.976;24.168;2023-01-04T06:40:18;1.70;99.90
22008;DHT22;11168;56.976;24.168;2023-01-04T06:42:45;1.70;99.90
22008;DHT22;11168;56.976;24.168;2023-01-04T06:45:14;1.70;99.90
22008;DHT22;11168;56.976;24.168;2023-01-04T06:47:41;1.70;99.90
22008;DHT22;11168;56.976;24.168;2023-01-04T06:50:09;1.70;99.90
22008;DHT22;11168;56.976;24.168;2023-01-04T06:52:37;1.70;99.90
22008;DHT22;11168;56.976;24.168;2023-01-04T06:55:05;1.70;99.90
22008;DHT22;11168;56.976;24.168;2023-01-04T06:57:33;1.70;99.90
22008;DHT22;11168;56.976;24.168;2023-01-04T07:00:00;1.60;99.90
22008;DHT22;11168;56.976;24.168;2023-01-04T07:02:27;1.60;99.90
22008;DHT22;11168;56.976;24.168;2023-01-04T07:04:54;1.60;99.90
22008;DHT22;11168;56.976;24.168;2023-01-04T07:07:21;1.60;99.90
22008;DHT22;11168;56.976;24.168;2023-01-04T07:09:48;1.60;99.90
22008;DHT22;11168;56.976;24.168;2023-01-04T07:12:15;1.50;99.90
22008;DHT22;11168;56.976;24.168;2023-01-04T07:14:42;1.50;99.90
22008;DHT22;11168;56.976;24.168;2023-01-04T07:17:09;1.50;99.90
22008;DHT22;11168;56.976;24.168;2023-01-04T07:19:36;1.50;99.90
22008;DHT22;11168;56.976;24.168;2023-01-04T07:22:03;1.50;99.90
22008;DHT22;11168;56.976;24.168;2023-01-04T07:24:30;1.50;99.90
22008;DHT22;11168;56.976;24.168;2023-01-04T07:27:00;1.50;99.90
22008;DHT22;11168;56.976;24.168;2023-01-04T07:29:27;1.50;99.90
22008;DHT22;11168;56.976;24.168;2023-01-04T07:31:55;1.50;99.90
22008;DHT22;11168;56.976;24.168;2023-01-04T07:34:24;1.50;99.90
22008;DHT22;11168;56.976;24.168;2023-01-04T07:36:51;1.50;99.90
22008;DHT22;11168;56.976;24.168;2023-01-04T07:39:18;1.50;99.90
22008;DHT22;11168;56.976;24.168;2023-01-04T07:41:47;1.50;99.90
22008;DHT22;11168;56.976;24.168;2023-01-04T07:44:14;1.50;99.90
22008;DHT22;11168;56.976;24.168;2023-01-04T07:46:43;1.50;99.90
22008;DHT22;11168;56.976;24.168;2023-01-04T07:49:13;1.50;99.90
22008;DHT22;11168;56.976;24.168;2023-01-04T07:51:46;1.60;99.90
22008;DHT22;11168;56.976;24.168;2023-01-04T07:54:15;1.60;99.90
22008;DHT22;11168;56.976;24.168;2023-01-04T07:56:43;1.50;99.90
22008;DHT22;11168;56.976;24.168;2023-01-04T07:59:10;1.60;99.90
22008;DHT22;11168;56.976;24.168;2023-01-04T08:01:40;1.60;99.90
22008;DHT22;11168;56.976;24.168;2023-01-04T08:04:09;1.60;99.90
22008;DHT22;11168;56.976;24.168;2023-01-04T08:06:40;1.60;99.90
22008;DHT22;11168;56.976;24.168;2023-01-04T08:09:07;1.60;99.90
22008;DHT22;11168;56.976;24.168;2023-01-04T08:11:36;1.70;99.90
22008;DHT22;11168;56.976;24.168;2023-01-04T08:14:03;1.70;99.90
22008;DHT22;11168;56.976;24.168;2023-01-04T08:16:35;0.50;99.90
22008;DHT22;11168;56.976;24.168;2023-01-04T08:19:05;1.80;99.90
22008;DHT22;11168;56.976;24.168;2023-01-04T08:21:34;1.70;99.90
22008;DHT22;11168;56.976;24.168;2023-01-04T08:24:02;1.70;99.90
22008;DHT22;11168;56.976;24.168;2023-01-04T08:26:30;1.70;99.90
22008;DHT22;11168;56.976;24.168;2023-01-04T08:28:57;1.70;99.90
22008;DHT22;11168;56.976;24.168;2023-01-04T08:31:29;1.80;99.90
22008;DHT22;11168;56.976;24.168;2023-01-04T08:34:00;1.60;99.90
22008;DHT22;11168;56.976;24.168;2023-01-04T08:36:32;1.70;99.90
22008;DHT22;11168;56.976;24.168;2023-01-04T08:39:08;1.70;99.90
22008;DHT22;11168;56.976;24.168;2023-01-04T08:41:35;1.80;99.90
22008;DHT22;11168;56.976;24.168;2023-01-04T08:44:36;1.80;99.90
22008;DHT22;11168;56.976;24.168;2023-01-04T08:47:03;1.80;99.90
22008;DHT22;11168;56.976;24.168;2023-01-04T08:49:30;1.80;99.90
22008;DHT22;11168;56.976;24.168;2023-01-04T08:51:57;1.80;99.90
22008;DHT22;11168;56.976;24.168;2023-01-04T08:54:24;1.70;99.90
22008;DHT22;11168;56.976;24.168;2023-01-04T08:56:51;1.80;99.90
22008;DHT22;11168;56.976;24.168;2023-01-04T08:59:18;1.80;99.90
22008;DHT22;11168;56.976;24.168;2023-01-04T09:01:45;2.20;99.90
22008;DHT22;11168;56.976;24.168;2023-01-04T09:04:12;1.90;99.90
22008;DHT22;11168;56.976;24.168;2023-01-04T09:06:40;1.90;99.90
22008;DHT22;11168;56.976;24.168;2023-01-04T09:09:07;1.80;99.90
22008;DHT22;11168;56.976;24.168;2023-01-04T09:11:36;1.90;99.90
22008;DHT22;11168;56.976;24.168;2023-01-04T09:14:03;1.90;99.90
22008;DHT22;11168;56.976;24.168;2023-01-04T09:16:38;1.90;99.90
22008;DHT22;11168;56.976;24.168;2023-01-04T09:19:06;1.80;99.90
22008;DHT22;11168;56.976;24.168;2023-01-04T09:21:33;1.80;99.90
22008;DHT22;11168;56.976;24.168;2023-01-04T09:24:00;1.80;99.90
22008;DHT22;11168;56.976;24.168;2023-01-04T09:26:27;1.80;99.90
22008;DHT22;11168;56.976;24.168;2023-01-04T09:28:55;1.90;99.90
22008;DHT22;11168;56.976;24.168;2023-01-04T09:31:24;1.90;99.90
22008;DHT22;11168;56.976;24.168;2023-01-04T09:33:53;1.90;99.90
22008;DHT22;11168;56.976;24.168;2023-01-04T09:36:40;1.90;99.90
22008;DHT22;11168;56.976;24.168;2023-01-04T09:39:07;1.90;99.90
22008;DHT22;11168;56.976;24.168;2023-01-04T09:41:58;2.00;99.90
22008;DHT22;11168;56.976;24.168;2023-01-04T09:44:43;2.00;99.90
22008;DHT22;11168;56.976;24.168;2023-01-04T09:47:39;2.10;99.90
22008;DHT22;11168;56.976;24.168;2023-01-04T09:53:27;2.10;99.90
22008;DHT22;11168;56.976;24.168;2023-01-04T09:56:06;2.20;99.90
22008;DHT22;11168;56.976;24.168;2023-01-04T09:58:35;2.10;99.90
22008;DHT22;11168;56.976;24.168;2023-01-04T10:03:38;2.20;99.90
22008;DHT22;11168;56.976;24.168;2023-01-04T10:06:11;2.20;99.90
22008;DHT22;11168;56.976;24.168;2023-01-04T10:08:39;2.20;99.90
22008;DHT22;11168;56.976;24.168;2023-01-04T10:11:27;2.20;99.90
22008;DHT22;11168;56.976;24.168;2023-01-04T10:14:22;2.20;99.90
22008;DHT22;11168;56.976;24.168;2023-01-04T10:21:06;2.10;99.90
22008;DHT22;11168;56.976;24.168;2023-01-04T10:24:59;2.10;99.90
22008;DHT22;11168;56.976;24.168;2023-01-04T10:26:59;2.10;99.90
22008;DHT22;11168;56.976;24.168;2023-01-04T10:32:43;2.00;99.90
22008;DHT22;11168;56.976;24.168;2023-01-04T10:35:24;2.10;99.90
22008;DHT22;11168;56.976;24.168;2023-01-04T10:37:57;2.00;99.90
22008;DHT22;11168;56.976;24.168;2023-01-04T10:40:27;2.00;99.90
22008;DHT22;11168;56.976;24.168;2023-01-04T10:48:26;2.00;99.90
22008;DHT22;11168;56.976;24.168;2023-01-04T10:51:01;2.00;99.90
22008;DHT22;11168;56.976;24.168;2023-01-04T10:56:55;2.00;99.90
22008;DHT22;11168;56.976;24.168;2023-01-04T11:00:00;2.00;99.90
22008;DHT22;11168;56.976;24.168;2023-01-04T11:07:44;2.00;99.90
22008;DHT22;11168;56.976;24.168;2023-01-04T11:10:41;2.00;99.90
22008;DHT22;11168;56.976;24.168;2023-01-04T11:13:10;2.00;99.90
22008;DHT22;11168;56.976;24.168;2023-01-04T11:15:37;2.00;99.90
22008;DHT22;11168;56.976;24.168;2023-01-04T11:18:06;2.10;99.90
22008;DHT22;11168;56.976;24.168;2023-01-04T11:20:34;2.10;99.90
22008;DHT22;11168;56.976;24.168;2023-01-04T11:23:09;2.20;99.90
22008;DHT22;11168;56.976;24.168;2023-01-04T11:25:48;2.10;99.90
22008;DHT22;11168;56.976;24.168;2023-01-04T11:28:48;2.10;99.90
22008;DHT22;11168;56.976;24.168;2023-01-04T11:31:25;2.10;99.90
22008;DHT22;11168;56.976;24.168;2023-01-04T11:33:58;2.00;99.90
22008;DHT22;11168;56.976;24.168;2023-01-04T11:36:40;2.00;99.90
22008;DHT22;11168;56.976;24.168;2023-01-04T11:39:22;2.00;99.90
22008;DHT22;11168;56.976;24.168;2023-01-04T11:42:00;2.00;99.90
22008;DHT22;11168;56.976;24.168;2023-01-04T11:44:32;2.00;99.90
22008;DHT22;11168;56.976;24.168;2023-01-04T11:47:07;2.00;99.90
22008;DHT22;11168;56.976;24.168;2023-01-04T11:49:38;2.00;99.90
22008;DHT22;11168;56.976;24.168;2023-01-04T11:52:05;2.00;99.90
22008;DHT22;11168;56.976;24.168;2023-01-04T11:54:34;2.00;99.90
22008;DHT22;11168;56.976;24.168;2023-01-04T11:57:07;2.00;99.90
22008;DHT22;11168;56.976;24.168;2023-01-04T11:59:43;2.00;99.90
22008;DHT22;11168;56.976;24.168;2023-01-04T12:02:24;2.00;99.90
22008;DHT22;11168;56.976;24.168;2023-01-04T12:05:18;2.00;99.90
22008;DHT22;11168;56.976;24.168;2023-01-04T12:07:55;2.00;99.90
22008;DHT22;11168;56.976;24.168;2023-01-04T12:10:25;2.00;99.90
22008;DHT22;11168;56.976;24.168;2023-01-04T12:12:54;2.00;99.90
22008;DHT22;11168;56.976;24.168;2023-01-04T12:15:30;1.90;99.90
22008;DHT22;11168;56.976;24.168;2023-01-04T12:18:56;1.90;99.90
22008;DHT22;11168;56.976;24.168;2023-01-04T12:21:00;1.90;99.90
22008;DHT22;11168;56.976;24.168;2023-01-04T12:23:28;1.90;99.90
22008;DHT22;11168;56.976;24.168;2023-01-04T12:25:55;1.80;99.90
22008;DHT22;11168;56.976;24.168;2023-01-04T12:28:40;1.80;99.90
22008;DHT22;11168;56.976;24.168;2023-01-04T12:33:56;1.80;99.90
22008;DHT22;11168;56.976;24.168;2023-01-04T13:01:24;1.80;99.90
22008;DHT22;11168;56.976;24.168;2023-01-04T13:03:58;1.80;99.90
22008;DHT22;11168;56.976;24.168;2023-01-04T13:06:35;1.80;99.90
22008;DHT22;11168;56.976;24.168;2023-01-04T13:09:18;1.80;99.90
22008;DHT22;11168;56.976;24.168;2023-01-04T13:14:50;1.80;99.90
22008;DHT22;11168;56.976;24.168;2023-01-04T13:17:24;1.80;99.90
22008;DHT22;11168;56.976;24.168;2023-01-04T13:19:51;1.80;99.90
22008;DHT22;11168;56.976;24.168;2023-01-04T13:22:28;1.70;99.90
22008;DHT22;11168;56.976;24.168;2023-01-04T13:24:57;1.70;99.90
22008;DHT22;11168;56.976;24.168;2023-01-04T13:27:25;1.70;99.90
22008;DHT22;11168;56.976;24.168;2023-01-04T13:29:53;1.70;99.90
22008;DHT22;11168;56.976;24.168;2023-01-04T13:32:23;1.70;99.90
22008;DHT22;11168;56.976;24.168;2023-01-04T13:34:56;1.70;99.90
22008;DHT22;11168;56.976;24.168;2023-01-04T13:37:40;1.70;99.90
22008;DHT22;11168;56.976;24.168;2023-01-04T13:40:23;1.60;99.90
22008;DHT22;11168;56.976;24.168;2023-01-04T13:43:07;1.60;99.90
22008;DHT22;11168;56.976;24.168;2023-01-04T13:48:21;1.60;99.90
22008;DHT22;11168;56.976;24.168;2023-01-04T13:51:05;1.60;99.90
22008;DHT22;11168;56.976;24.168;2023-01-04T13:53:32;1.50;99.90
22008;DHT22;11168;56.976;24.168;2023-01-04T13:56:01;1.50;99.90
22008;DHT22;11168;56.976;24.168;2023-01-04T13:58:30;1.50;99.90
22008;DHT22;11168;56.976;24.168;2023-01-04T14:01:16;1.50;99.90
22008;DHT22;11168;56.976;24.168;2023-01-04T14:09:03;1.40;99.90
22008;DHT22;11168;56.976;24.168;2023-01-04T14:11:39;1.40;99.90
22008;DHT22;11168;56.976;24.168;2023-01-04T14:22:51;1.40;99.90
22008;DHT22;11168;56.976;24.168;2023-01-04T14:31:17;1.40;99.90
22008;DHT22;11168;56.976;24.168;2023-01-04T14:33:47;1.40;99.90
22008;DHT22;11168;56.976;24.168;2023-01-04T14:36:29;1.40;99.90
22008;DHT22;11168;56.976;24.168;2023-01-04T14:41:53;1.40;99.90
22008;DHT22;11168;56.976;24.168;2023-01-04T14:44:26;1.40;99.90
22008;DHT22;11168;56.976;24.168;2023-01-04T14:46:59;1.40;99.90
22008;DHT22;11168;56.976;24.168;2023-01-04T14:49:26;1.30;99.90
22008;DHT22;11168;56.976;24.168;2023-01-04T14:51:58;1.30;99.90
22008;DHT22;11168;56.976;24.168;2023-01-04T14:54:27;1.30;99.90
22008;DHT22;11168;56.976;24.168;2023-01-04T14:56:56;1.30;99.90
22008;DHT22;11168;56.976;24.168;2023-01-04T14:59:24;1.30;99.90
22008;DHT22;11168;56.976;24.168;2023-01-04T15:01:53;1.30;99.90
22008;DHT22;11168;56.976;24.168;2023-01-04T15:04:20;1.30;99.90
22008;DHT22;11168;56.976;24.168;2023-01-04T15:06:54;1.30;99.90
22008;DHT22;11168;56.976;24.168;2023-01-04T15:09:22;1.30;99.90
22008;DHT22;11168;56.976;24.168;2023-01-04T15:11:49;1.30;99.90
22008;DHT22;11168;56.976;24.168;2023-01-04T15:14:16;1.20;99.90
22008;DHT22;11168;56.976;24.168;2023-01-04T15:16:44;1.20;99.90
22008;DHT22;11168;56.976;24.168;2023-01-04T15:19:11;1.20;99.90
22008;DHT22;11168;56.976;24.168;2023-01-04T15:21:37;1.20;99.90
22008;DHT22;11168;56.976;24.168;2023-01-04T15:24:08;1.20;99.90
22008;DHT22;11168;56.976;24.168;2023-01-04T15:26:35;1.20;99.90
22008;DHT22;11168;56.976;24.168;2023-01-04T15:29:02;1.20;99.90
22008;DHT22;11168;56.976;24.168;2023-01-04T15:31:32;1.20;99.90
22008;DHT22;11168;56.976;24.168;2023-01-04T15:34:05;1.20;99.90
22008;DHT22;11168;56.976;24.168;2023-01-04T15:36:32;1.20;99.90
22008;DHT22;11168;56.976;24.168;2023-01-04T15:39:00;1.20;99.90
22008;DHT22;11168;56.976;24.168;2023-01-04T15:41:27;1.20;99.90
22008;DHT22;11168;56.976;24.168;2023-01-04T15:44:13;1.20;99.90
22008;DHT22;11168;56.976;24.168;2023-01-04T15:46:40;1.20;99.90
22008;DHT22;11168;56.976;24.168;2023-01-04T15:49:07;1.20;99.90
22008;DHT22;11168;56.976;24.168;2023-01-04T15:51:42;1.10;99.90
22008;DHT22;11168;56.976;24.168;2023-01-04T15:54:09;1.10;99.90
22008;DHT22;11168;56.976;24.168;2023-01-04T15:56:36;1.10;99.90
22008;DHT22;11168;56.976;24.168;2023-01-04T15:59:03;1.10;99.90
22008;DHT22;11168;56.976;24.168;2023-01-04T16:01:30;1.10;99.90
22008;DHT22;11168;56.976;24.168;2023-01-04T16:03:57;1.10;99.90
22008;DHT22;11168;56.976;24.168;2023-01-04T16:06:24;1.00;99.90
22008;DHT22;11168;56.976;24.168;2023-01-04T16:08:52;1.00;99.90
22008;DHT22;11168;56.976;24.168;2023-01-04T16:11:21;1.00;99.90
22008;DHT22;11168;56.976;24.168;2023-01-04T16:13:51;1.00;99.90
22008;DHT22;11168;56.976;24.168;2023-01-04T16:16:20;1.00;99.90
22008;DHT22;11168;56.976;24.168;2023-01-04T16:18:50;0.90;99.90
22008;DHT22;11168;56.976;24.168;2023-01-04T16:21:24;0.90;99.90
22008;DHT22;11168;56.976;24.168;2023-01-04T16:23:52;0.80;99.90
22008;DHT22;11168;56.976;24.168;2023-01-04T16:26:27;0.80;99.90
22008;DHT22;11168;56.976;24.168;2023-01-04T16:28:54;0.70;99.90
22008;DHT22;11168;56.976;24.168;2023-01-04T16:31:22;0.70;99.90
22008;DHT22;11168;56.976;24.168;2023-01-04T16:33:52;0.70;99.90
22008;DHT22;11168;56.976;24.168;2023-01-04T16:36:19;0.70;99.90
22008;DHT22;11168;56.976;24.168;2023-01-04T16:38:46;0.70;99.90
22008;DHT22;11168;56.976;24.168;2023-01-04T16:41:15;0.60;99.90
22008;DHT22;11168;56.976;24.168;2023-01-04T16:43:50;0.60;99.90
22008;DHT22;11168;56.976;24.168;2023-01-04T16:46:21;0.50;99.90
22008;DHT22;11168;56.976;24.168;2023-01-04T16:48:55;0.60;99.90
22008;DHT22;11168;56.976;24.168;2023-01-04T16:51:24;0.50;99.90
22008;DHT22;11168;56.976;24.168;2023-01-04T16:53:51;0.40;99.90
22008;DHT22;11168;56.976;24.168;2023-01-04T16:56:20;0.50;99.90
22008;DHT22;11168;56.976;24.168;2023-01-04T16:58:48;0.40;99.90
22008;DHT22;11168;56.976;24.168;2023-01-04T17:01:26;0.30;99.90
22008;DHT22;11168;56.976;24.168;2023-01-04T17:03:56;0.40;99.90
22008;DHT22;11168;56.976;24.168;2023-01-04T17:06:26;0.40;99.90
22008;DHT22;11168;56.976;24.168;2023-01-04T17:08:54;0.30;99.90
22008;DHT22;11168;56.976;24.168;2023-01-04T17:11:27;0.30;99.90
22008;DHT22;11168;56.976;24.168;2023-01-04T17:14:14;0.30;99.90
22008;DHT22;11168;56.976;24.168;2023-01-04T17:16:42;0.40;99.90
22008;DHT22;11168;56.976;24.168;2023-01-04T17:19:09;0.60;99.90
22008;DHT22;11168;56.976;24.168;2023-01-04T17:21:36;0.50;99.90
22008;DHT22;11168;56.976;24.168;2023-01-04T17:24:03;0.40;99.90
22008;DHT22;11168;56.976;24.168;2023-01-04T17:26:31;0.30;99.90
22008;DHT22;11168;56.976;24.168;2023-01-04T17:29:00;0.40;99.90
22008;DHT22;11168;56.976;24.168;2023-01-04T17:31:29;0.30;99.90
22008;DHT22;11168;56.976;24.168;2023-01-04T17:33:58;0.30;99.90
22008;DHT22;11168;56.976;24.168;2023-01-04T17:36:25;0.20;99.90
22008;DHT22;11168;56.976;24.168;2023-01-04T17:38:52;0.20;99.90
22008;DHT22;11168;56.976;24.168;2023-01-04T17:41:22;0.20;99.90
22008;DHT22;11168;56.976;24.168;2023-01-04T17:43:52;0.20;99.90
22008;DHT22;11168;56.976;24.168;2023-01-04T17:46:21;0.20;99.90
22008;DHT22;11168;56.976;24.168;2023-01-04T17:48:50;0.20;99.90
22008;DHT22;11168;56.976;24.168;2023-01-04T17:51:37;0.20;99.90
22008;DHT22;11168;56.976;24.168;2023-01-04T17:54:06;0.20;99.90
22008;DHT22;11168;56.976;24.168;2023-01-04T17:56:36;0.10;99.90
22008;DHT22;11168;56.976;24.168;2023-01-04T17:59:11;0.10;99.90